sensor_id;sensor_type;location;lat;lon;timestamp;P1;durP1;ratioP1;P2;durP2;ratioP2
62654;SDS011;48717;55.556;37.816;2023-05-16T00:00:17;21.35;;;8.80;;
62654;SDS011;48717;55.556;37.816;2023-05-16T00:02:45;17.23;;;7.35;;
62654;SDS011;48717;55.556;37.816;2023-05-16T00:28:36;30.75;;;10.57;;
62654;SDS011;48717;55.556;37.816;2023-05-16T00:31:04;34.47;;;9.35;;
62654;SDS011;48717;55.556;37.816;2023-05-16T00:33:31;26.73;;;8.43;;
62654;SDS011;48717;55.556;37.816;2023-05-16T00:35:59;25.10;;;8.77;;
62654;SDS011;48717;55.556;37.816;2023-05-16T00:38:26;23.20;;;8.38;;
62654;SDS011;48717;55.556;37.816;2023-05-16T00:40:54;27.52;;;9.02;;
62654;SDS011;48717;55.556;37.816;2023-05-16T00:43:21;26.52;;;8.70;;
62654;SDS011;48717;55.556;37.816;2023-05-16T00:45:49;28.08;;;9.18;;
62654;SDS011;48717;55.556;37.816;2023-05-16T00:48:16;22.55;;;9.30;;
62654;SDS011;48717;55.556;37.816;2023-05-16T00:50:44;29.55;;;9.98;;
62654;SDS011;48717;55.556;37.816;2023-05-16T00:53:11;26.75;;;10.80;;
62654;SDS011;48717;55.556;37.816;2023-05-16T00:55:38;34.67;;;12.43;;
62654;SDS011;48717;55.556;37.816;2023-05-16T00:58:06;23.88;;;10.68;;
62654;SDS011;48717;55.556;37.816;2023-05-16T01:00:34;27.83;;;10.77;;
62654;SDS011;48717;55.556;37.816;2023-05-16T01:03:03;24.10;;;10.70;;
62654;SDS011;48717;55.556;37.816;2023-05-16T01:07:59;33.17;;;9.75;;
62654;SDS011;48717;55.556;37.816;2023-05-16T01:10:32;20.50;;;9.30;;
62654;SDS011;48717;55.556;37.816;2023-05-16T01:15:59;18.98;;;8.60;;
62654;SDS011;48717;55.556;37.816;2023-05-16T01:18:46;19.88;;;9.10;;
62654;SDS011;48717;55.556;37.816;2023-05-16T01:21:28;21.92;;;8.93;;
62654;SDS011;48717;55.556;37.816;2023-05-16T01:24:12;29.50;;;8.50;;
62654;SDS011;48717;55.556;37.816;2023-05-16T01:26:44;23.77;;;8.77;;
62654;SDS011;48717;55.556;37.816;2023-05-16T01:29:12;21.15;;;8.35;;
62654;SDS011;48717;55.556;37.816;2023-05-16T01:31:40;19.23;;;7.90;;
62654;SDS011;48717;55.556;37.816;2023-05-16T01:34:08;19.10;;;7.90;;
62654;SDS011;48717;55.556;37.816;2023-05-16T01:36:40;20.35;;;8.00;;
62654;SDS011;48717;55.556;37.816;2023-05-16T01:39:41;17.30;;;8.52;;
62654;SDS011;48717;55.556;37.816;2023-05-16T01:42:12;27.70;;;9.85;;
62654;SDS011;48717;55.556;37.816;2023-05-16T01:44:45;15.52;;;7.07;;
62654;SDS011;48717;55.556;37.816;2023-05-16T01:47:22;19.10;;;7.45;;
62654;SDS011;48717;55.556;37.816;2023-05-16T01:52:39;18.98;;;7.47;;
62654;SDS011;48717;55.556;37.816;2023-05-16T01:55:15;25.77;;;9.52;;
62654;SDS011;48717;55.556;37.816;2023-05-16T01:57:49;17.40;;;6.35;;
62654;SDS011;48717;55.556;37.816;2023-05-16T02:00:18;20.50;;;7.53;;
62654;SDS011;48717;55.556;37.816;2023-05-16T02:02:46;15.43;;;6.53;;
62654;SDS011;48717;55.556;37.816;2023-05-16T02:05:15;17.58;;;6.15;;
62654;SDS011;48717;55.556;37.816;2023-05-16T02:07:42;8.63;;;5.05;;
62654;SDS011;48717;55.556;37.816;2023-05-16T02:10:10;10.68;;;4.47;;
62654;SDS011;48717;55.556;37.816;2023-05-16T02:12:39;11.07;;;6.10;;
62654;SDS011;48717;55.556;37.816;2023-05-16T02:15:07;7.35;;;4.05;;
62654;SDS011;48717;55.556;37.816;2023-05-16T02:17:35;13.25;;;5.28;;
62654;SDS011;48717;55.556;37.816;2023-05-16T02:20:03;9.20;;;3.28;;
62654;SDS011;48717;55.556;37.816;2023-05-16T02:22:33;9.32;;;4.10;;
62654;SDS011;48717;55.556;37.816;2023-05-16T02:25:00;9.25;;;4.43;;
62654;SDS011;48717;55.556;37.816;2023-05-16T02:27:29;8.32;;;4.22;;
62654;SDS011;48717;55.556;37.816;2023-05-16T02:29:57;7.40;;;5.05;;
62654;SDS011;48717;55.556;37.816;2023-05-16T02:32:24;6.72;;;3.65;;
62654;SDS011;48717;55.556;37.816;2023-05-16T02:34:52;9.65;;;3.92;;
62654;SDS011;48717;55.556;37.816;2023-05-16T02:37:19;7.72;;;4.60;;
62654;SDS011;48717;55.556;37.816;2023-05-16T02:39:48;11.18;;;3.80;;
62654;SDS011;48717;55.556;37.816;2023-05-16T02:42:15;8.02;;;3.30;;
62654;SDS011;48717;55.556;37.816;2023-05-16T02:44:43;10.02;;;4.05;;
62654;SDS011;48717;55.556;37.816;2023-05-16T02:47:10;8.50;;;3.58;;
62654;SDS011;48717;55.556;37.816;2023-05-16T02:49:37;16.70;;;4.00;;
62654;SDS011;48717;55.556;37.816;2023-05-16T02:52:05;6.07;;;3.30;;
62654;SDS011;48717;55.556;37.816;2023-05-16T02:54:33;8.65;;;3.38;;
62654;SDS011;48717;55.556;37.816;2023-05-16T02:57:01;8.23;;;2.97;;
62654;SDS011;48717;55.556;37.816;2023-05-16T02:59:28;9.25;;;3.58;;
62654;SDS011;48717;55.556;37.816;2023-05-16T03:01:56;5.13;;;3.03;;
62654;SDS011;48717;55.556;37.816;2023-05-16T03:04:25;5.80;;;3.33;;
62654;SDS011;48717;55.556;37.816;2023-05-16T03:06:52;6.10;;;3.10;;
62654;SDS011;48717;55.556;37.816;2023-05-16T03:09:20;7.35;;;2.90;;
62654;SDS011;48717;55.556;37.816;2023-05-16T03:11:47;6.75;;;3.10;;
62654;SDS011;48717;55.556;37.816;2023-05-16T03:14:14;8.93;;;3.30;;
62654;SDS011;48717;55.556;37.816;2023-05-16T03:16:45;5.97;;;2.97;;
62654;SDS011;48717;55.556;37.816;2023-05-16T03:19:12;7.28;;;2.92;;
62654;SDS011;48717;55.556;37.816;2023-05-16T03:21:39;6.40;;;2.83;;
62654;SDS011;48717;55.556;37.816;2023-05-16T03:24:07;9.02;;;3.03;;
62654;SDS011;48717;55.556;37.816;2023-05-16T03:26:34;7.97;;;3.10;;
62654;SDS011;48717;55.556;37.816;2023-05-16T03:29:01;7.18;;;3.22;;
62654;SDS011;48717;55.556;37.816;2023-05-16T03:31:29;7.25;;;3.75;;
62654;SDS011;48717;55.556;37.816;2023-05-16T03:33:57;7.88;;;3.90;;
62654;SDS011;48717;55.556;37.816;2023-05-16T03:36:25;5.20;;;3.60;;
62654;SDS011;48717;55.556;37.816;2023-05-16T03:38:53;16.75;;;5.57;;
62654;SDS011;48717;55.556;37.816;2023-05-16T03:41:20;14.05;;;5.82;;
62654;SDS011;48717;55.556;37.816;2023-05-16T03:43:48;12.90;;;5.63;;
62654;SDS011;48717;55.556;37.816;2023-05-16T03:46:15;9.52;;;5.40;;
62654;SDS011;48717;55.556;37.816;2023-05-16T03:48:42;34.40;;;11.75;;
62654;SDS011;48717;55.556;37.816;2023-05-16T03:51:09;16.25;;;7.00;;
62654;SDS011;48717;55.556;37.816;2023-05-16T03:53:36;19.27;;;7.65;;
62654;SDS011;48717;55.556;37.816;2023-05-16T03:56:03;25.05;;;13.68;;
62654;SDS011;48717;55.556;37.816;2023-05-16T03:58:31;23.75;;;9.20;;
62654;SDS011;48717;55.556;37.816;2023-05-16T04:00:58;21.80;;;10.57;;
62654;SDS011;48717;55.556;37.816;2023-05-16T04:03:25;15.55;;;8.93;;
62654;SDS011;48717;55.556;37.816;2023-05-16T04:05:54;12.65;;;6.30;;
62654;SDS011;48717;55.556;37.816;2023-05-16T04:08:22;17.70;;;9.48;;
62654;SDS011;48717;55.556;37.816;2023-05-16T04:10:49;13.88;;;6.88;;
62654;SDS011;48717;55.556;37.816;2023-05-16T04:13:16;5.07;;;4.20;;
62654;SDS011;48717;55.556;37.816;2023-05-16T04:15:43;14.02;;;7.10;;
62654;SDS011;48717;55.556;37.816;2023-05-16T04:18:11;12.77;;;6.22;;
62654;SDS011;48717;55.556;37.816;2023-05-16T04:20:40;9.68;;;5.22;;
62654;SDS011;48717;55.556;37.816;2023-05-16T04:23:08;8.80;;;4.20;;
62654;SDS011;48717;55.556;37.816;2023-05-16T04:25:39;7.15;;;3.80;;
62654;SDS011;48717;55.556;37.816;2023-05-16T04:28:06;7.50;;;3.08;;
62654;SDS011;48717;55.556;37.816;2023-05-16T04:30:34;4.40;;;3.17;;
62654;SDS011;48717;55.556;37.816;2023-05-16T04:33:01;7.43;;;2.92;;
62654;SDS011;48717;55.556;37.816;2023-05-16T04:35:28;5.10;;;3.22;;
62654;SDS011;48717;55.556;37.816;2023-05-16T04:37:55;3.63;;;2.70;;
62654;SDS011;48717;55.556;37.816;2023-05-16T04:40:23;6.85;;;2.78;;
62654;SDS011;48717;55.556;37.816;2023-05-16T04:42:51;4.22;;;2.80;;
62654;SDS011;48717;55.556;37.816;2023-05-16T04:45:20;5.03;;;3.15;;
62654;SDS011;48717;55.556;37.816;2023-05-16T04:47:47;5.38;;;2.67;;
62654;SDS011;48717;55.556;37.816;2023-05-16T04:50:14;5.68;;;2.72;;
62654;SDS011;48717;55.556;37.816;2023-05-16T04:52:43;5.65;;;2.33;;
62654;SDS011;48717;55.556;37.816;2023-05-16T04:55:10;3.83;;;2.22;;
62654;SDS011;48717;55.556;37.816;2023-05-16T04:57:37;2.55;;;1.85;;
62654;SDS011;48717;55.556;37.816;2023-05-16T05:00:05;3.60;;;2.00;;
62654;SDS011;48717;55.556;37.816;2023-05-16T05:02:37;5.32;;;1.90;;
62654;SDS011;48717;55.556;37.816;2023-05-16T05:05:05;4.07;;;1.83;;
62654;SDS011;48717;55.556;37.816;2023-05-16T05:07:33;3.22;;;1.85;;
62654;SDS011;48717;55.556;37.816;2023-05-16T05:10:00;3.08;;;1.70;;
62654;SDS011;48717;55.556;37.816;2023-05-16T05:12:29;1.60;;;1.50;;
62654;SDS011;48717;55.556;37.816;2023-05-16T05:14:56;7.10;;;2.05;;
62654;SDS011;48717;55.556;37.816;2023-05-16T05:17:23;7.75;;;1.95;;
62654;SDS011;48717;55.556;37.816;2023-05-16T05:19:51;3.70;;;2.08;;
62654;SDS011;48717;55.556;37.816;2023-05-16T05:22:18;2.33;;;1.50;;
62654;SDS011;48717;55.556;37.816;2023-05-16T05:24:45;2.67;;;1.40;;
62654;SDS011;48717;55.556;37.816;2023-05-16T05:27:12;4.75;;;1.65;;
62654;SDS011;48717;55.556;37.816;2023-05-16T05:29:39;1.77;;;1.55;;
62654;SDS011;48717;55.556;37.816;2023-05-16T05:32:06;3.63;;;1.75;;
62654;SDS011;48717;55.556;37.816;2023-05-16T05:34:34;3.63;;;1.58;;
62654;SDS011;48717;55.556;37.816;2023-05-16T05:37:01;3.17;;;1.38;;
62654;SDS011;48717;55.556;37.816;2023-05-16T05:39:28;2.30;;;1.40;;
62654;SDS011;48717;55.556;37.816;2023-05-16T05:41:55;5.88;;;2.00;;
62654;SDS011;48717;55.556;37.816;2023-05-16T05:44:22;2.70;;;1.50;;
62654;SDS011;48717;55.556;37.816;2023-05-16T05:46:50;11.30;;;1.52;;
62654;SDS011;48717;55.556;37.816;2023-05-16T05:49:17;1.60;;;1.20;;
62654;SDS011;48717;55.556;37.816;2023-05-16T05:51:44;2.92;;;1.75;;
62654;SDS011;48717;55.556;37.816;2023-05-16T05:54:12;1.33;;;1.23;;
62654;SDS011;48717;55.556;37.816;2023-05-16T05:56:39;4.65;;;1.20;;
62654;SDS011;48717;55.556;37.816;2023-05-16T05:59:06;1.75;;;1.40;;
62654;SDS011;48717;55.556;37.816;2023-05-16T06:01:34;2.75;;;1.23;;
62654;SDS011;48717;55.556;37.816;2023-05-16T06:04:01;2.30;;;1.02;;
62654;SDS011;48717;55.556;37.816;2023-05-16T06:06:29;1.67;;;1.20;;
62654;SDS011;48717;55.556;37.816;2023-05-16T06:08:57;3.00;;;1.58;;
62654;SDS011;48717;55.556;37.816;2023-05-16T06:11:24;1.25;;;1.15;;
62654;SDS011;48717;55.556;37.816;2023-05-16T06:13:51;2.42;;;1.00;;
62654;SDS011;48717;55.556;37.816;2023-05-16T06:16:18;1.25;;;1.10;;
62654;SDS011;48717;55.556;37.816;2023-05-16T06:18:49;2.55;;;1.02;;
62654;SDS011;48717;55.556;37.816;2023-05-16T06:21:17;0.93;;;0.93;;
62654;SDS011;48717;55.556;37.816;2023-05-16T06:23:44;2.25;;;1.00;;
62654;SDS011;48717;55.556;37.816;2023-05-16T06:26:11;3.40;;;1.10;;
62654;SDS011;48717;55.556;37.816;2023-05-16T06:28:38;7.35;;;1.20;;
62654;SDS011;48717;55.556;37.816;2023-05-16T06:31:05;3.00;;;1.17;;
62654;SDS011;48717;55.556;37.816;2023-05-16T06:33:32;1.50;;;1.00;;
62654;SDS011;48717;55.556;37.816;2023-05-16T06:35:59;0.95;;;0.90;;
62654;SDS011;48717;55.556;37.816;2023-05-16T06:38:27;2.00;;;1.13;;
62654;SDS011;48717;55.556;37.816;2023-05-16T06:40:54;1.50;;;1.00;;
62654;SDS011;48717;55.556;37.816;2023-05-16T06:43:21;4.40;;;1.20;;
62654;SDS011;48717;55.556;37.816;2023-05-16T06:45:48;5.43;;;1.20;;
62654;SDS011;48717;55.556;37.816;2023-05-16T06:48:16;2.05;;;1.05;;
62654;SDS011;48717;55.556;37.816;2023-05-16T06:50:47;5.18;;;1.40;;
62654;SDS011;48717;55.556;37.816;2023-05-16T06:53:15;1.13;;;1.00;;
62654;SDS011;48717;55.556;37.816;2023-05-16T06:55:42;3.97;;;1.00;;
62654;SDS011;48717;55.556;37.816;2023-05-16T06:58:10;1.25;;;1.10;;
62654;SDS011;48717;55.556;37.816;2023-05-16T07:00:37;9.30;;;1.17;;
62654;SDS011;48717;55.556;37.816;2023-05-16T07:03:04;1.92;;;0.98;;
62654;SDS011;48717;55.556;37.816;2023-05-16T07:05:32;4.28;;;1.00;;
62654;SDS011;48717;55.556;37.816;2023-05-16T07:07:59;2.40;;;1.08;;
62654;SDS011;48717;55.556;37.816;2023-05-16T07:10:27;3.10;;;1.00;;
62654;SDS011;48717;55.556;37.816;2023-05-16T07:12:54;1.10;;;1.00;;
62654;SDS011;48717;55.556;37.816;2023-05-16T07:15:22;10.80;;;1.70;;
62654;SDS011;48717;55.556;37.816;2023-05-16T07:17:49;2.70;;;1.10;;
62654;SDS011;48717;55.556;37.816;2023-05-16T07:20:16;3.42;;;1.48;;
62654;SDS011;48717;55.556;37.816;2023-05-16T07:22:43;1.52;;;1.20;;
62654;SDS011;48717;55.556;37.816;2023-05-16T07:25:11;2.03;;;1.17;;
62654;SDS011;48717;55.556;37.816;2023-05-16T07:27:40;1.33;;;1.02;;
62654;SDS011;48717;55.556;37.816;2023-05-16T07:32:38;3.10;;;1.10;;
62654;SDS011;48717;55.556;37.816;2023-05-16T07:35:06;4.45;;;1.30;;
62654;SDS011;48717;55.556;37.816;2023-05-16T07:37:34;2.75;;;1.50;;
62654;SDS011;48717;55.556;37.816;2023-05-16T07:40:02;1.75;;;1.27;;
62654;SDS011;48717;55.556;37.816;2023-05-16T07:42:31;3.80;;;1.60;;
62654;SDS011;48717;55.556;37.816;2023-05-16T07:44:58;4.97;;;1.80;;
62654;SDS011;48717;55.556;37.816;2023-05-16T07:47:26;2.72;;;1.30;;
62654;SDS011;48717;55.556;37.816;2023-05-16T07:49:53;3.72;;;1.25;;
62654;SDS011;48717;55.556;37.816;2023-05-16T07:52:20;3.85;;;1.20;;
62654;SDS011;48717;55.556;37.816;2023-05-16T07:54:47;3.53;;;1.02;;
62654;SDS011;48717;55.556;37.816;2023-05-16T07:57:15;1.77;;;1.00;;
62654;SDS011;48717;55.556;37.816;2023-05-16T07:59:42;4.70;;;1.00;;
62654;SDS011;48717;55.556;37.816;2023-05-16T08:02:10;1.73;;;0.88;;
62654;SDS011;48717;55.556;37.816;2023-05-16T08:04:38;2.80;;;1.02;;
62654;SDS011;48717;55.556;37.816;2023-05-16T08:07:05;8.30;;;1.90;;
62654;SDS011;48717;55.556;37.816;2023-05-16T08:09:33;1.77;;;1.00;;
62654;SDS011;48717;55.556;37.816;2023-05-16T08:12:00;1.40;;;1.15;;
62654;SDS011;48717;55.556;37.816;2023-05-16T08:14:29;1.80;;;0.90;;
62654;SDS011;48717;55.556;37.816;2023-05-16T08:16:58;3.28;;;1.13;;
62654;SDS011;48717;55.556;37.816;2023-05-16T08:19:26;3.72;;;1.05;;
62654;SDS011;48717;55.556;37.816;2023-05-16T08:21:55;3.70;;;1.00;;
62654;SDS011;48717;55.556;37.816;2023-05-16T08:24:22;2.03;;;0.80;;
62654;SDS011;48717;55.556;37.816;2023-05-16T08:26:49;1.23;;;0.85;;
62654;SDS011;48717;55.556;37.816;2023-05-16T08:29:17;3.38;;;0.73;;
62654;SDS011;48717;55.556;37.816;2023-05-16T08:31:44;4.30;;;1.00;;
62654;SDS011;48717;55.556;37.816;2023-05-16T08:34:11;1.30;;;0.88;;
62654;SDS011;48717;55.556;37.816;2023-05-16T08:36:38;1.90;;;1.00;;
62654;SDS011;48717;55.556;37.816;2023-05-16T08:39:06;2.83;;;0.90;;
62654;SDS011;48717;55.556;37.816;2023-05-16T08:41:33;1.25;;;0.65;;
62654;SDS011;48717;55.556;37.816;2023-05-16T08:44:00;3.58;;;0.77;;
62654;SDS011;48717;55.556;37.816;2023-05-16T08:46:28;2.28;;;0.93;;
62654;SDS011;48717;55.556;37.816;2023-05-16T08:48:57;4.53;;;0.93;;
62654;SDS011;48717;55.556;37.816;2023-05-16T08:51:26;1.25;;;0.90;;
62654;SDS011;48717;55.556;37.816;2023-05-16T08:54:05;8.63;;;1.38;;
62654;SDS011;48717;55.556;37.816;2023-05-16T08:56:43;5.20;;;1.05;;
62654;SDS011;48717;55.556;37.816;2023-05-16T08:59:11;3.43;;;1.00;;
62654;SDS011;48717;55.556;37.816;2023-05-16T09:01:39;1.02;;;0.90;;
62654;SDS011;48717;55.556;37.816;2023-05-16T09:04:07;3.53;;;0.82;;
62654;SDS011;48717;55.556;37.816;2023-05-16T09:06:35;4.22;;;1.67;;
62654;SDS011;48717;55.556;37.816;2023-05-16T09:09:03;2.15;;;0.93;;
62654;SDS011;48717;55.556;37.816;2023-05-16T09:11:33;2.88;;;0.90;;
62654;SDS011;48717;55.556;37.816;2023-05-16T09:14:02;6.03;;;1.17;;
62654;SDS011;48717;55.556;37.816;2023-05-16T09:16:31;4.15;;;0.95;;
62654;SDS011;48717;55.556;37.816;2023-05-16T09:18:58;2.28;;;1.17;;
62654;SDS011;48717;55.556;37.816;2023-05-16T09:21:28;1.85;;;0.90;;
62654;SDS011;48717;55.556;37.816;2023-05-16T09:24:07;3.67;;;0.98;;
62654;SDS011;48717;55.556;37.816;2023-05-16T09:26:36;4.40;;;1.02;;
62654;SDS011;48717;55.556;37.816;2023-05-16T09:29:10;1.40;;;1.30;;
62654;SDS011;48717;55.556;37.816;2023-05-16T09:31:38;2.83;;;0.90;;
62654;SDS011;48717;55.556;37.816;2023-05-16T09:34:07;1.70;;;0.80;;
62654;SDS011;48717;55.556;37.816;2023-05-16T09:36:35;1.15;;;0.98;;
62654;SDS011;48717;55.556;37.816;2023-05-16T09:39:02;6.43;;;1.10;;
62654;SDS011;48717;55.556;37.816;2023-05-16T09:41:33;3.72;;;1.48;;
62654;SDS011;48717;55.556;37.816;2023-05-16T09:44:04;2.13;;;0.93;;
62654;SDS011;48717;55.556;37.816;2023-05-16T09:46:36;1.45;;;0.70;;
62654;SDS011;48717;55.556;37.816;2023-05-16T09:49:04;5.25;;;1.00;;
62654;SDS011;48717;55.556;37.816;2023-05-16T09:51:32;2.28;;;0.93;;
62654;SDS011;48717;55.556;37.816;2023-05-16T09:54:00;1.67;;;0.80;;
62654;SDS011;48717;55.556;37.816;2023-05-16T09:56:27;2.28;;;0.82;;
62654;SDS011;48717;55.556;37.816;2023-05-16T09:58:56;2.15;;;0.90;;
62654;SDS011;48717;55.556;37.816;2023-05-16T10:01:23;1.30;;;0.93;;
62654;SDS011;48717;55.556;37.816;2023-05-16T10:03:51;1.15;;;0.90;;
62654;SDS011;48717;55.556;37.816;2023-05-16T10:06:18;1.67;;;0.68;;
62654;SDS011;48717;55.556;37.816;2023-05-16T10:08:46;3.88;;;0.80;;
62654;SDS011;48717;55.556;37.816;2023-05-16T10:11:14;0.95;;;0.70;;
62654;SDS011;48717;55.556;37.816;2023-05-16T10:16:15;2.63;;;0.93;;
62654;SDS011;48717;55.556;37.816;2023-05-16T10:18:44;1.17;;;0.85;;
62654;SDS011;48717;55.556;37.816;2023-05-16T10:21:13;3.10;;;1.10;;
62654;SDS011;48717;55.556;37.816;2023-05-16T10:23:43;4.70;;;0.90;;
62654;SDS011;48717;55.556;37.816;2023-05-16T10:26:15;1.80;;;0.88;;
62654;SDS011;48717;55.556;37.816;2023-05-16T10:28:43;7.38;;;1.88;;
62654;SDS011;48717;55.556;37.816;2023-05-16T10:31:11;4.05;;;1.10;;
62654;SDS011;48717;55.556;37.816;2023-05-16T10:33:40;2.33;;;0.93;;
62654;SDS011;48717;55.556;37.816;2023-05-16T10:36:07;3.50;;;0.90;;
62654;SDS011;48717;55.556;37.816;2023-05-16T10:38:36;4.43;;;0.80;;
62654;SDS011;48717;55.556;37.816;2023-05-16T10:41:05;0.98;;;0.80;;
62654;SDS011;48717;55.556;37.816;2023-05-16T10:43:33;2.88;;;0.90;;
62654;SDS011;48717;55.556;37.816;2023-05-16T10:46:04;3.28;;;0.90;;
62654;SDS011;48717;55.556;37.816;2023-05-16T10:48:35;2.88;;;0.88;;
62654;SDS011;48717;55.556;37.816;2023-05-16T10:51:31;2.83;;;0.80;;
62654;SDS011;48717;55.556;37.816;2023-05-16T10:54:09;4.35;;;0.90;;
62654;SDS011;48717;55.556;37.816;2023-05-16T10:56:39;2.78;;;0.90;;
62654;SDS011;48717;55.556;37.816;2023-05-16T10:59:22;1.35;;;0.80;;
62654;SDS011;48717;55.556;37.816;2023-05-16T11:01:53;2.13;;;0.80;;
62654;SDS011;48717;55.556;37.816;2023-05-16T11:04:22;1.80;;;0.90;;
62654;SDS011;48717;55.556;37.816;2023-05-16T11:06:50;2.75;;;0.90;;
62654;SDS011;48717;55.556;37.816;2023-05-16T11:09:20;2.85;;;0.82;;
62654;SDS011;48717;55.556;37.816;2023-05-16T11:11:59;4.60;;;1.00;;
62654;SDS011;48717;55.556;37.816;2023-05-16T11:17:13;5.43;;;1.75;;
62654;SDS011;48717;55.556;37.816;2023-05-16T11:19:47;1.73;;;0.80;;
62654;SDS011;48717;55.556;37.816;2023-05-16T11:24:55;2.10;;;0.80;;
62654;SDS011;48717;55.556;37.816;2023-05-16T11:27:31;10.70;;;1.42;;
62654;SDS011;48717;55.556;37.816;2023-05-16T11:30:02;6.07;;;1.00;;
62654;SDS011;48717;55.556;37.816;2023-05-16T11:32:42;6.30;;;1.30;;
62654;SDS011;48717;55.556;37.816;2023-05-16T11:35:11;3.30;;;1.13;;
62654;SDS011;48717;55.556;37.816;2023-05-16T11:37:41;2.22;;;0.85;;
62654;SDS011;48717;55.556;37.816;2023-05-16T11:40:09;2.50;;;0.70;;
62654;SDS011;48717;55.556;37.816;2023-05-16T11:42:41;2.47;;;0.80;;
62654;SDS011;48717;55.556;37.816;2023-05-16T11:47:41;2.83;;;0.95;;
62654;SDS011;48717;55.556;37.816;2023-05-16T11:50:11;4.25;;;2.00;;
62654;SDS011;48717;55.556;37.816;2023-05-16T11:52:44;2.90;;;0.90;;
62654;SDS011;48717;55.556;37.816;2023-05-16T11:55:20;2.67;;;1.13;;
62654;SDS011;48717;55.556;37.816;2023-05-16T11:58:05;5.78;;;1.02;;
62654;SDS011;48717;55.556;37.816;2023-05-16T12:00:32;1.55;;;0.90;;
62654;SDS011;48717;55.556;37.816;2023-05-16T12:03:00;3.03;;;1.00;;
62654;SDS011;48717;55.556;37.816;2023-05-16T12:05:31;5.07;;;1.00;;
62654;SDS011;48717;55.556;37.816;2023-05-16T12:08:00;5.88;;;1.30;;
62654;SDS011;48717;55.556;37.816;2023-05-16T12:10:30;2.83;;;1.05;;
62654;SDS011;48717;55.556;37.816;2023-05-16T12:12:59;0.80;;;0.80;;
62654;SDS011;48717;55.556;37.816;2023-05-16T12:15:27;2.88;;;0.95;;
62654;SDS011;48717;55.556;37.816;2023-05-16T12:17:55;1.55;;;0.80;;
62654;SDS011;48717;55.556;37.816;2023-05-16T12:20:22;2.17;;;0.95;;
62654;SDS011;48717;55.556;37.816;2023-05-16T12:22:51;0.88;;;0.63;;
62654;SDS011;48717;55.556;37.816;2023-05-16T12:25:31;2.45;;;1.20;;
62654;SDS011;48717;55.556;37.816;2023-05-16T12:28:03;4.85;;;1.10;;
62654;SDS011;48717;55.556;37.816;2023-05-16T12:30:33;3.45;;;1.10;;
62654;SDS011;48717;55.556;37.816;2023-05-16T12:33:01;2.10;;;0.95;;
62654;SDS011;48717;55.556;37.816;2023-05-16T12:35:34;1.30;;;0.90;;
62654;SDS011;48717;55.556;37.816;2023-05-16T12:38:04;2.10;;;0.95;;
62654;SDS011;48717;55.556;37.816;2023-05-16T12:40:36;1.60;;;0.90;;
62654;SDS011;48717;55.556;37.816;2023-05-16T12:43:39;1.23;;;1.10;;
62654;SDS011;48717;55.556;37.816;2023-05-16T12:45:59;2.53;;;0.90;;
62654;SDS011;48717;55.556;37.816;2023-05-16T12:48:32;1.90;;;1.17;;
62654;SDS011;48717;55.556;37.816;2023-05-16T12:51:14;1.48;;;1.02;;
62654;SDS011;48717;55.556;37.816;2023-05-16T12:53:44;7.95;;;1.52;;
62654;SDS011;48717;55.556;37.816;2023-05-16T12:56:40;1.83;;;0.90;;
62654;SDS011;48717;55.556;37.816;2023-05-16T12:59:07;3.45;;;1.15;;
62654;SDS011;48717;55.556;37.816;2023-05-16T13:01:35;2.75;;;1.02;;
62654;SDS011;48717;55.556;37.816;2023-05-16T13:04:03;2.00;;;1.00;;
62654;SDS011;48717;55.556;37.816;2023-05-16T13:06:30;1.15;;;0.90;;
62654;SDS011;48717;55.556;37.816;2023-05-16T13:09:18;2.58;;;1.02;;
62654;SDS011;48717;55.556;37.816;2023-05-16T13:11:45;4.88;;;1.00;;
62654;SDS011;48717;55.556;37.816;2023-05-16T13:14:13;4.75;;;2.95;;
62654;SDS011;48717;55.556;37.816;2023-05-16T13:16:40;2.45;;;1.08;;
62654;SDS011;48717;55.556;37.816;2023-05-16T13:19:07;2.97;;;1.65;;
62654;SDS011;48717;55.556;37.816;2023-05-16T13:21:35;5.25;;;1.33;;
62654;SDS011;48717;55.556;37.816;2023-05-16T13:24:02;3.75;;;1.65;;
62654;SDS011;48717;55.556;37.816;2023-05-16T13:26:30;3.28;;;1.00;;
62654;SDS011;48717;55.556;37.816;2023-05-16T13:28:57;3.88;;;1.00;;
62654;SDS011;48717;55.556;37.816;2023-05-16T13:31:24;2.75;;;1.20;;
62654;SDS011;48717;55.556;37.816;2023-05-16T13:33:51;1.90;;;0.90;;
62654;SDS011;48717;55.556;37.816;2023-05-16T13:36:18;3.92;;;2.17;;
62654;SDS011;48717;55.556;37.816;2023-05-16T13:38:45;3.90;;;1.00;;
62654;SDS011;48717;55.556;37.816;2023-05-16T13:41:13;1.85;;;1.08;;
62654;SDS011;48717;55.556;37.816;2023-05-16T13:43:40;3.00;;;1.38;;
62654;SDS011;48717;55.556;37.816;2023-05-16T13:46:08;1.10;;;1.00;;
62654;SDS011;48717;55.556;37.816;2023-05-16T13:48:35;2.30;;;1.35;;
62654;SDS011;48717;55.556;37.816;2023-05-16T13:51:02;2.50;;;1.10;;
62654;SDS011;48717;55.556;37.816;2023-05-16T13:53:29;5.53;;;1.50;;
62654;SDS011;48717;55.556;37.816;2023-05-16T13:55:59;0.93;;;0.90;;
62654;SDS011;48717;55.556;37.816;2023-05-16T13:58:27;5.28;;;1.10;;
62654;SDS011;48717;55.556;37.816;2023-05-16T14:00:54;2.40;;;0.95;;
62654;SDS011;48717;55.556;37.816;2023-05-16T14:03:21;2.55;;;1.27;;
62654;SDS011;48717;55.556;37.816;2023-05-16T14:05:49;1.20;;;1.00;;
62654;SDS011;48717;55.556;37.816;2023-05-16T14:08:16;5.88;;;1.30;;
62654;SDS011;48717;55.556;37.816;2023-05-16T14:10:44;1.02;;;0.70;;
62654;SDS011;48717;55.556;37.816;2023-05-16T14:13:11;1.35;;;1.20;;
62654;SDS011;48717;55.556;37.816;2023-05-16T14:15:38;2.47;;;1.10;;
62654;SDS011;48717;55.556;37.816;2023-05-16T14:18:05;3.08;;;1.05;;
62654;SDS011;48717;55.556;37.816;2023-05-16T14:20:33;1.67;;;1.10;;
62654;SDS011;48717;55.556;37.816;2023-05-16T14:23:00;4.45;;;1.35;;
62654;SDS011;48717;55.556;37.816;2023-05-16T14:25:27;3.13;;;1.50;;
62654;SDS011;48717;55.556;37.816;2023-05-16T14:27:55;2.33;;;1.50;;
62654;SDS011;48717;55.556;37.816;2023-05-16T14:30:23;1.75;;;1.30;;
62654;SDS011;48717;55.556;37.816;2023-05-16T14:32:50;2.33;;;1.40;;
62654;SDS011;48717;55.556;37.816;2023-05-16T14:35:17;1.40;;;1.20;;
62654;SDS011;48717;55.556;37.816;2023-05-16T14:37:44;1.67;;;1.08;;
62654;SDS011;48717;55.556;37.816;2023-05-16T14:40:12;4.75;;;1.30;;
62654;SDS011;48717;55.556;37.816;2023-05-16T14:42:39;3.20;;;1.27;;
62654;SDS011;48717;55.556;37.816;2023-05-16T14:45:06;2.33;;;1.40;;
62654;SDS011;48717;55.556;37.816;2023-05-16T14:47:34;7.30;;;2.20;;
62654;SDS011;48717;55.556;37.816;2023-05-16T14:50:02;1.70;;;1.27;;
62654;SDS011;48717;55.556;37.816;2023-05-16T14:52:30;1.75;;;1.60;;
62654;SDS011;48717;55.556;37.816;2023-05-16T14:54:58;4.50;;;1.83;;
62654;SDS011;48717;55.556;37.816;2023-05-16T14:57:28;3.40;;;1.35;;
62654;SDS011;48717;55.556;37.816;2023-05-16T14:59:55;5.30;;;2.17;;
62654;SDS011;48717;55.556;37.816;2023-05-16T15:02:22;2.72;;;1.30;;
62654;SDS011;48717;55.556;37.816;2023-05-16T15:04:50;4.38;;;1.27;;
62654;SDS011;48717;55.556;37.816;2023-05-16T15:07:17;4.38;;;1.95;;
62654;SDS011;48717;55.556;37.816;2023-05-16T15:09:44;4.25;;;0.95;;
62654;SDS011;48717;55.556;37.816;2023-05-16T15:12:11;5.93;;;1.98;;
62654;SDS011;48717;55.556;37.816;2023-05-16T15:14:38;3.88;;;1.20;;
62654;SDS011;48717;55.556;37.816;2023-05-16T15:17:06;4.22;;;1.40;;
62654;SDS011;48717;55.556;37.816;2023-05-16T15:19:35;7.25;;;2.13;;
62654;SDS011;48717;55.556;37.816;2023-05-16T15:22:02;6.55;;;3.30;;
62654;SDS011;48717;55.556;37.816;2023-05-16T15:24:33;3.20;;;1.10;;